createdAt,value
2022-09-22T00:01:14.740Z,7.90
2022-09-22T00:03:43.207Z,8.00
2022-09-22T00:06:19.210Z,7.90
2022-09-22T00:08:48.921Z,7.90
2022-09-22T00:11:18.600Z,7.90
2022-09-22T00:13:50.473Z,7.90
2022-09-22T00:16:22.368Z,7.90
2022-09-22T00:18:49.408Z,7.80
2022-09-22T00:21:18.932Z,7.80
2022-09-22T00:23:47.140Z,7.80
2022-09-22T00:26:16.703Z,7.80
2022-09-22T00:28:45.186Z,7.80
2022-09-22T00:31:17.657Z,7.70
2022-09-22T00:33:46.335Z,7.70
2022-09-22T00:36:14.713Z,7.60
2022-09-22T00:38:42.319Z,7.50
2022-09-22T00:41:16.557Z,7.50
2022-09-22T00:43:44.243Z,7.50
2022-09-22T00:46:16.589Z,7.50
2022-09-22T00:48:51.439Z,7.40
2022-09-22T00:51:20.882Z,7.40
2022-09-22T00:53:47.949Z,7.40
2022-09-22T00:56:28.480Z,7.40
2022-09-22T00:58:59.140Z,7.40
2022-09-22T01:01:25.949Z,7.40
2022-09-22T01:03:54.260Z,7.30
2022-09-22T01:06:24.808Z,7.30
2022-09-22T01:08:52.439Z,7.20
2022-09-22T01:11:20.667Z,7.20
2022-09-22T01:14:12.371Z,7.20
2022-09-22T01:16:57.351Z,7.10
2022-09-22T01:19:30.032Z,7.10
2022-09-22T01:22:24.620Z,7.10
2022-09-22T01:25:06.866Z,7.00
2022-09-22T01:28:06.657Z,7.00
2022-09-22T01:30:37.583Z,7.00
2022-09-22T01:33:10.309Z,6.90
2022-09-22T01:35:55.833Z,6.90
2022-09-22T01:38:57.604Z,6.90
2022-09-22T01:42:04.121Z,6.80
2022-09-22T01:44:42.837Z,6.80
2022-09-22T01:47:19.570Z,6.80
2022-09-22T01:50:00.230Z,6.80
2022-09-22T01:52:28.838Z,6.70
2022-09-22T01:54:56.650Z,6.70
2022-09-22T01:57:47.540Z,6.70
2022-09-22T02:00:15.078Z,6.70
2022-09-22T02:02:49.193Z,6.70
2022-09-22T02:05:21.659Z,6.70
2022-09-22T02:07:50.747Z,6.60
2022-09-22T02:10:20.176Z,6.60
2022-09-22T02:12:49.197Z,6.50
2022-09-22T02:15:35.118Z,6.50
2022-09-22T02:18:05.780Z,6.50
2022-09-22T02:20:33.469Z,6.40
2022-09-22T02:23:00.695Z,6.40
2022-09-22T02:25:27.634Z,6.30
2022-09-22T02:27:55.504Z,6.30
2022-09-22T02:30:22.346Z,6.30
2022-09-22T02:32:51.566Z,6.30
2022-09-22T02:35:18.370Z,6.30
2022-09-22T02:37:54.038Z,6.30
2022-09-22T02:40:39.390Z,6.30
2022-09-22T02:43:36.475Z,6.30
2022-09-22T02:46:21.168Z,6.30
2022-09-22T02:49:13.528Z,6.40
2022-09-22T02:51:40.532Z,6.40
2022-09-22T02:54:07.514Z,6.40
2022-09-22T02:56:34.757Z,6.40
2022-09-22T02:59:01.427Z,6.40
2022-09-22T03:01:28.167Z,6.30
2022-09-22T03:03:54.955Z,6.30
2022-09-22T03:06:21.714Z,6.20
2022-09-22T03:08:48.432Z,6.20
2022-09-22T03:11:15.133Z,6.20
2022-09-22T03:13:41.839Z,6.20
2022-09-22T03:16:09.245Z,6.20
2022-09-22T03:18:36.154Z,6.30
2022-09-22T03:21:02.873Z,6.30
2022-09-22T03:23:29.732Z,6.30
2022-09-22T03:25:56.420Z,6.20
2022-09-22T03:28:23.103Z,6.20
2022-09-22T03:30:49.977Z,6.20
2022-09-22T03:33:16.838Z,6.20
2022-09-22T03:35:43.545Z,6.10
2022-09-22T03:38:11.022Z,6.10
2022-09-22T03:40:38.052Z,6.00
2022-09-22T03:43:04.768Z,6.00
2022-09-22T03:45:31.465Z,6.00
2022-09-22T03:47:58.960Z,6.00
2022-09-22T03:50:26.082Z,5.90
2022-09-22T03:52:52.951Z,5.90
2022-09-22T03:55:19.666Z,5.90
2022-09-22T03:57:46.933Z,5.80
2022-09-22T04:00:14.187Z,5.80
2022-09-22T04:02:41.471Z,5.80
2022-09-22T04:05:09.039Z,5.80
2022-09-22T04:07:35.741Z,5.70
2022-09-22T04:10:03.288Z,5.70
2022-09-22T04:12:30.051Z,5.70
2022-09-22T04:14:56.740Z,5.70
2022-09-22T04:17:23.453Z,5.60
2022-09-22T04:19:50.449Z,5.60
2022-09-22T04:22:17.186Z,5.60
2022-09-22T04:24:44.181Z,5.60
2022-09-22T04:27:26.160Z,5.60
2022-09-22T04:29:52.972Z,5.60
2022-09-22T04:32:19.733Z,5.60
2022-09-22T04:34:46.425Z,5.50
2022-09-22T04:37:14.210Z,5.60
2022-09-22T04:39:41.226Z,5.60
2022-09-22T04:42:09.135Z,5.60
2022-09-22T04:44:36.004Z,5.60
2022-09-22T04:47:03.622Z,5.60
2022-09-22T04:49:30.997Z,5.50
2022-09-22T04:51:57.740Z,5.50
2022-09-22T04:54:24.445Z,5.50
2022-09-22T04:56:51.169Z,5.50
2022-09-22T04:59:17.887Z,5.50
2022-09-22T05:01:44.626Z,5.50
2022-09-22T05:04:11.680Z,5.50
2022-09-22T05:06:38.640Z,5.50
2022-09-22T05:09:05.412Z,5.50
2022-09-22T05:11:32.737Z,5.40
2022-09-22T05:13:59.546Z,5.40
2022-09-22T05:16:26.561Z,5.40
2022-09-22T05:18:53.435Z,5.40
2022-09-22T05:21:20.187Z,5.40
2022-09-22T05:23:47.410Z,5.30
2022-09-22T05:26:14.223Z,5.40
2022-09-22T05:28:41.007Z,5.40
2022-09-22T05:31:07.840Z,5.40
2022-09-22T05:33:34.612Z,5.40
2022-09-22T05:36:01.501Z,5.40
2022-09-22T05:38:28.839Z,5.40
2022-09-22T05:40:55.552Z,5.40
2022-09-22T05:43:22.274Z,5.40
2022-09-22T05:45:49.822Z,5.40
2022-09-22T05:48:16.743Z,5.40
2022-09-22T05:50:44.063Z,5.40
2022-09-22T05:53:12.239Z,5.40
2022-09-22T05:55:40.227Z,5.50
2022-09-22T05:58:09.188Z,5.50
2022-09-22T06:00:36.621Z,5.50
2022-09-22T06:03:03.790Z,5.60
2022-09-22T06:05:30.632Z,5.60
2022-09-22T06:07:59.581Z,5.60
2022-09-22T06:10:26.870Z,5.70
2022-09-22T06:13:01.096Z,5.70
2022-09-22T06:15:28.628Z,5.70
2022-09-22T06:17:56.346Z,5.80
2022-09-22T06:20:23.965Z,5.80
2022-09-22T06:22:50.929Z,5.80
2022-09-22T06:25:18.112Z,5.90
2022-09-22T06:27:45.084Z,5.90
2022-09-22T06:30:12.558Z,5.90
2022-09-22T06:32:39.449Z,6.00
2022-09-22T06:35:07.240Z,6.00
2022-09-22T06:37:34.016Z,6.10
2022-09-22T06:40:00.895Z,6.20
2022-09-22T06:42:27.583Z,6.30
2022-09-22T06:44:54.796Z,6.30
2022-09-22T06:47:21.509Z,6.40
2022-09-22T06:49:48.208Z,6.40
2022-09-22T06:52:15.117Z,6.50
2022-09-22T06:54:42.692Z,6.60
2022-09-22T06:57:10.372Z,6.70
2022-09-22T06:59:37.863Z,6.80
2022-09-22T07:02:07.230Z,6.90
2022-09-22T07:04:34.707Z,7.00
2022-09-22T07:07:03.912Z,7.10
2022-09-22T07:09:31.682Z,7.20
2022-09-22T07:11:59.596Z,7.30
2022-09-22T07:14:26.371Z,7.40
2022-09-22T07:16:53.138Z,7.50
2022-09-22T07:19:19.889Z,7.70
2022-09-22T07:21:48.955Z,7.80
2022-09-22T07:24:33.021Z,7.90
2022-09-22T07:27:04.256Z,8.00
2022-09-22T07:29:31.057Z,8.10
2022-09-22T07:31:59.075Z,8.20
2022-09-22T07:34:28.953Z,8.40
2022-09-22T07:36:55.777Z,8.50
2022-09-22T07:39:25.037Z,8.60
2022-09-22T07:41:51.816Z,8.70
2022-09-22T07:44:44.212Z,8.90
2022-09-22T07:47:11.638Z,9.10
2022-09-22T07:49:38.348Z,9.10
2022-09-22T07:52:05.118Z,9.30
2022-09-22T07:54:34.653Z,9.40
2022-09-22T07:57:05.410Z,9.50
2022-09-22T07:59:34.966Z,9.60
2022-09-22T08:02:01.987Z,9.70
2022-09-22T08:04:31.880Z,9.90
2022-09-22T08:06:58.657Z,10.00
2022-09-22T08:09:25.911Z,10.10
2022-09-22T08:11:53.481Z,10.20
2022-09-22T08:14:23.952Z,10.30
2022-09-22T08:16:51.738Z,10.40
2022-09-22T08:19:19.074Z,10.50
2022-09-22T08:21:49.137Z,10.60
2022-09-22T08:24:22.523Z,10.70
2022-09-22T08:26:50.614Z,10.80
2022-09-22T08:29:17.471Z,10.90
2022-09-22T08:31:47.853Z,11.10
2022-09-22T08:34:17.489Z,11.30
2022-09-22T08:36:46.290Z,11.40
2022-09-22T08:39:13.339Z,11.50
2022-09-22T08:42:10.508Z,11.60
2022-09-22T08:44:41.577Z,11.80
2022-09-22T08:47:13.411Z,11.90
2022-09-22T08:50:04.441Z,12.00
2022-09-22T08:52:38.949Z,12.20
2022-09-22T08:55:13.217Z,12.30
2022-09-22T08:57:59.306Z,12.50
2022-09-22T09:00:31.383Z,12.70
2022-09-22T09:03:21.073Z,12.90
2022-09-22T09:06:09.095Z,13.10
2022-09-22T09:09:15.608Z,13.30
2022-09-22T09:11:58.086Z,13.50
2022-09-22T09:15:02.234Z,13.70
2022-09-22T09:17:30.859Z,13.90
2022-09-22T09:20:21.730Z,14.00
2022-09-22T09:22:55.654Z,14.10
2022-09-22T09:25:52.336Z,14.40
2022-09-22T09:28:42.225Z,14.70
2022-09-22T09:31:32.416Z,14.80
2022-09-22T09:34:21.906Z,14.80
2022-09-22T09:36:55.260Z,14.90
2022-09-22T09:39:40.993Z,15.00
2022-09-22T09:42:27.097Z,15.20
2022-09-22T09:44:54.691Z,15.50
2022-09-22T09:47:47.567Z,15.70
2022-09-22T09:50:15.028Z,15.90
2022-09-22T09:52:42.244Z,16.00
2022-09-22T09:55:27.225Z,16.10
2022-09-22T09:58:07.479Z,16.30
2022-09-22T10:00:55.165Z,16.40
2022-09-22T10:03:29.352Z,16.30
2022-09-22T10:06:08.707Z,16.20
2022-09-22T10:08:49.200Z,16.40
2022-09-22T10:11:16.331Z,16.60
2022-09-22T10:13:43.857Z,16.70
2022-09-22T10:16:30.692Z,16.70
2022-09-22T10:19:26.146Z,16.70
2022-09-22T10:21:53.008Z,16.80
2022-09-22T10:24:29.538Z,17.10
2022-09-22T10:26:56.395Z,17.30
2022-09-22T10:29:25.032Z,17.20
2022-09-22T10:32:05.295Z,17.00
2022-09-22T10:34:38.871Z,16.80
2022-09-22T10:37:10.998Z,16.90
2022-09-22T10:39:44.439Z,17.00
2022-09-22T10:42:37.874Z,17.50
2022-09-22T10:45:07.234Z,17.90
2022-09-22T10:47:43.073Z,17.90
2022-09-22T10:50:58.869Z,18.10
2022-09-22T10:53:31.368Z,18.10
2022-09-22T10:56:09.853Z,17.70
2022-09-22T10:58:39.718Z,17.40
2022-09-22T11:01:32.757Z,17.20
2022-09-22T11:04:24.327Z,17.00
2022-09-22T11:07:25.305Z,16.80
2022-09-22T11:10:41.401Z,16.70
2022-09-22T11:13:36.235Z,16.60
2022-09-22T11:16:34.478Z,16.60
2022-09-22T11:19:19.316Z,16.60
2022-09-22T11:22:07.882Z,16.60
2022-09-22T11:24:55.648Z,16.60
2022-09-22T11:27:36.360Z,17.00
2022-09-22T11:30:10.524Z,17.20
2022-09-22T11:32:41.064Z,17.20
2022-09-22T11:35:13.883Z,17.10
2022-09-22T11:37:54.294Z,16.90
2022-09-22T11:40:32.897Z,16.90
2022-09-22T11:43:27.186Z,16.80
2022-09-22T11:46:04.509Z,16.70
2022-09-22T11:48:45.081Z,16.60
2022-09-22T11:51:47.392Z,16.30
2022-09-22T11:54:38.172Z,16.10
2022-09-22T11:57:09.426Z,16.00
2022-09-22T11:59:48.149Z,16.00
2022-09-22T12:02:31.546Z,16.00
2022-09-22T12:05:07.066Z,16.10
2022-09-22T12:07:57.070Z,16.10
2022-09-22T12:10:39.824Z,16.20
2022-09-22T12:13:18.433Z,16.20
2022-09-22T12:15:58.695Z,16.20
2022-09-22T12:18:49.926Z,16.10
2022-09-22T12:21:44.517Z,16.10
2022-09-22T12:24:12.180Z,16.10
2022-09-22T12:26:44.067Z,16.20
2022-09-22T12:29:13.754Z,16.20
2022-09-22T12:31:42.541Z,16.20
2022-09-22T12:34:19.989Z,16.20
2022-09-22T12:36:47.639Z,16.30
2022-09-22T12:39:18.025Z,16.70
2022-09-22T12:41:48.239Z,17.20
2022-09-22T12:44:24.078Z,17.60
2022-09-22T12:46:51.494Z,17.90
2022-09-22T12:49:21.229Z,18.10
2022-09-22T12:51:48.000Z,18.20
2022-09-22T12:54:23.884Z,17.90
2022-09-22T12:57:09.187Z,17.70
2022-09-22T12:59:35.861Z,17.60
2022-09-22T13:02:16.073Z,17.40
2022-09-22T13:05:04.352Z,17.20
2022-09-22T13:07:42.738Z,17.10
2022-09-22T13:10:21.942Z,17.00
2022-09-22T13:13:06.744Z,17.00
2022-09-22T13:15:54.595Z,17.10
2022-09-22T13:18:33.659Z,17.30
2022-09-22T13:21:21.489Z,17.40
2022-09-22T13:23:51.517Z,17.40
2022-09-22T13:26:28.391Z,17.60
2022-09-22T13:29:15.845Z,17.80
2022-09-22T13:31:54.281Z,17.90
2022-09-22T13:34:20.994Z,18.20
2022-09-22T13:36:48.013Z,18.30
2022-09-22T13:39:43.467Z,18.10
2022-09-22T13:42:22.289Z,17.80
2022-09-22T13:45:12.484Z,17.50
2022-09-22T13:47:42.328Z,17.30
2022-09-22T13:50:16.219Z,17.10
2022-09-22T13:52:44.626Z,16.90
2022-09-22T13:55:26.034Z,16.70
2022-09-22T13:57:56.191Z,16.70
2022-09-22T14:00:26.929Z,16.60
2022-09-22T14:02:58.445Z,16.40
2022-09-22T14:05:28.070Z,16.30
2022-09-22T14:08:11.306Z,16.10
2022-09-22T14:10:41.545Z,16.00
2022-09-22T14:13:37.271Z,15.90
2022-09-22T14:16:27.501Z,15.80
2022-09-22T14:18:58.215Z,15.70
2022-09-22T14:21:27.433Z,15.70
2022-09-22T14:23:54.295Z,15.60
2022-09-22T14:26:33.568Z,15.60
2022-09-22T14:29:14.183Z,15.50
2022-09-22T14:31:48.997Z,15.60
2022-09-22T14:34:37.889Z,15.60
2022-09-22T14:37:21.993Z,15.50
2022-09-22T14:39:50.743Z,15.50
2022-09-22T14:42:30.938Z,15.60
2022-09-22T14:45:24.533Z,15.80
2022-09-22T14:48:16.726Z,16.00
2022-09-22T14:50:46.253Z,16.10
2022-09-22T14:53:19.032Z,16.20
2022-09-22T14:55:48.269Z,16.30
2022-09-22T14:58:26.548Z,16.50
2022-09-22T15:01:18.870Z,16.70
2022-09-22T15:04:01.241Z,16.70
2022-09-22T15:06:39.559Z,16.60
2022-09-22T15:09:07.501Z,16.60
2022-09-22T15:11:51.032Z,16.50
2022-09-22T15:14:30.926Z,16.30
2022-09-22T15:17:17.709Z,16.30
2022-09-22T15:19:44.483Z,16.30
2022-09-22T15:22:14.293Z,16.20
2022-09-22T15:24:41.047Z,16.10
2022-09-22T15:27:07.995Z,16.00
2022-09-22T15:29:34.802Z,16.00
2022-09-22T15:32:04.393Z,15.90
2022-09-22T15:34:31.149Z,15.80
2022-09-22T15:36:58.227Z,15.80
2022-09-22T15:39:26.745Z,15.70
2022-09-22T15:41:53.863Z,15.70
2022-09-22T15:44:20.794Z,15.70
2022-09-22T15:46:53.157Z,15.60
2022-09-22T15:49:26.505Z,15.60
2022-09-22T15:51:55.921Z,15.50
2022-09-22T15:54:24.114Z,15.50
2022-09-22T15:56:52.567Z,15.50
2022-09-22T15:59:22.254Z,15.50
2022-09-22T16:01:51.775Z,15.50
2022-09-22T16:04:20.108Z,15.50
2022-09-22T16:06:56.483Z,15.40
2022-09-22T16:09:23.193Z,15.30
2022-09-22T16:11:50.243Z,15.20
2022-09-22T16:14:19.087Z,15.00
2022-09-22T16:16:45.792Z,14.90
2022-09-22T16:19:12.563Z,14.80
2022-09-22T16:21:41.464Z,14.70
2022-09-22T16:24:10.701Z,14.50
2022-09-22T16:26:39.224Z,14.40
2022-09-22T16:29:07.467Z,14.20
2022-09-22T16:31:35.426Z,14.10
2022-09-22T16:34:03.805Z,14.00
2022-09-22T16:36:35.386Z,13.80
2022-09-22T16:39:02.842Z,13.70
2022-09-22T16:41:31.981Z,13.60
2022-09-22T16:43:59.206Z,13.50
2022-09-22T16:46:28.211Z,13.40
2022-09-22T16:49:07.360Z,13.30
2022-09-22T16:51:36.925Z,13.20
2022-09-22T16:54:05.461Z,13.10
2022-09-22T16:56:34.143Z,13.00
2022-09-22T16:59:03.846Z,12.90
2022-09-22T17:01:32.069Z,12.80
2022-09-22T17:03:58.993Z,12.80
2022-09-22T17:06:26.276Z,12.70
2022-09-22T17:08:57.025Z,12.60
2022-09-22T17:11:35.006Z,12.40
2022-09-22T17:14:04.636Z,12.30
2022-09-22T17:16:37.442Z,12.20
2022-09-22T17:19:11.695Z,12.10
2022-09-22T17:21:40.114Z,12.00
2022-09-22T17:24:09.068Z,11.90
2022-09-22T17:26:50.755Z,11.80
2022-09-22T17:29:25.455Z,11.70
2022-09-22T17:31:56.444Z,11.60
2022-09-22T17:34:28.528Z,11.50
2022-09-22T17:36:56.266Z,11.40
2022-09-22T17:39:25.032Z,11.40
2022-09-22T17:41:52.150Z,11.30
2022-09-22T17:44:22.743Z,11.20
2022-09-22T17:47:09.436Z,11.20
2022-09-22T17:49:55.825Z,11.00
2022-09-22T17:52:28.555Z,10.90
2022-09-22T17:55:11.094Z,10.90
2022-09-22T17:57:39.664Z,10.80
2022-09-22T18:00:09.306Z,10.70
2022-09-22T18:02:36.777Z,10.70
2022-09-22T18:05:08.277Z,10.60
2022-09-22T18:07:38.161Z,10.50
2022-09-22T18:10:06.775Z,10.50
2022-09-22T18:12:34.166Z,10.40
2022-09-22T18:15:03.388Z,10.40
2022-09-22T18:17:32.418Z,10.40
2022-09-22T18:19:59.834Z,10.30
2022-09-22T18:22:28.520Z,10.30
2022-09-22T18:24:56.194Z,10.30
2022-09-22T18:27:29.774Z,10.20
2022-09-22T18:29:59.534Z,10.20
2022-09-22T18:32:26.958Z,10.10
2022-09-22T18:34:54.554Z,10.10
2022-09-22T18:37:22.416Z,10.10
2022-09-22T18:39:50.471Z,10.00
2022-09-22T18:42:18.995Z,10.00
2022-09-22T18:44:47.071Z,9.90
2022-09-22T18:47:16.252Z,9.90
2022-09-22T18:49:44.178Z,9.90
2022-09-22T18:52:11.408Z,9.90
2022-09-22T18:54:39.892Z,9.90
2022-09-22T18:57:07.330Z,9.90
2022-09-22T18:59:33.997Z,9.90
2022-09-22T19:02:00.856Z,9.90
2022-09-22T19:04:27.693Z,9.90
2022-09-22T19:07:14.498Z,10.00
2022-09-22T19:09:42.039Z,9.90
2022-09-22T19:12:10.580Z,9.90
2022-09-22T19:14:39.136Z,10.00
2022-09-22T19:17:07.334Z,10.00
2022-09-22T19:19:36.978Z,10.00
2022-09-22T19:22:08.922Z,10.00
2022-09-22T19:24:37.051Z,10.00
2022-09-22T19:27:04.685Z,10.00
2022-09-22T19:29:32.723Z,10.00
2022-09-22T19:32:00.915Z,10.00
2022-09-22T19:34:28.527Z,10.00
2022-09-22T19:36:55.691Z,10.00
2022-09-22T19:39:23.071Z,10.00
2022-09-22T19:41:50.962Z,10.00
2022-09-22T19:44:20.133Z,9.90
2022-09-22T19:46:47.647Z,9.90
2022-09-22T19:49:15.901Z,9.90
2022-09-22T19:51:42.828Z,9.80
2022-09-22T19:54:09.856Z,9.80
2022-09-22T19:56:36.789Z,9.70
2022-09-22T19:59:04.552Z,9.70
2022-09-22T20:01:36.129Z,9.60
2022-09-22T20:04:03.706Z,9.50
2022-09-22T20:06:30.578Z,9.50
2022-09-22T20:09:03.266Z,9.50
2022-09-22T20:11:38.654Z,9.40
2022-09-22T20:14:27.143Z,9.40
2022-09-22T20:16:56.103Z,9.30
2022-09-22T20:19:24.577Z,9.30
2022-09-22T20:21:52.711Z,9.30
2022-09-22T20:24:22.015Z,9.20
2022-09-22T20:26:49.421Z,9.20
2022-09-22T20:29:17.091Z,9.10
2022-09-22T20:31:47.620Z,9.10
2022-09-22T20:34:15.264Z,9.10
2022-09-22T20:36:43.488Z,9.00
2022-09-22T20:39:14.673Z,9.00
2022-09-22T20:41:42.373Z,9.00
2022-09-22T20:44:14.745Z,9.00
2022-09-22T20:46:47.863Z,9.00
2022-09-22T20:49:19.717Z,9.00
2022-09-22T20:51:49.927Z,9.00
2022-09-22T20:54:17.392Z,9.00
2022-09-22T20:56:45.555Z,9.00
2022-09-22T20:59:12.643Z,9.10
2022-09-22T21:01:39.774Z,9.10
2022-09-22T21:04:06.895Z,9.10
2022-09-22T21:06:33.747Z,9.00
2022-09-22T21:09:18.988Z,9.00
2022-09-22T21:11:45.820Z,9.00
2022-09-22T21:14:12.883Z,8.90
2022-09-22T21:16:39.933Z,8.90
2022-09-22T21:19:08.211Z,8.90
2022-09-22T21:21:38.354Z,8.80
2022-09-22T21:24:05.596Z,8.70
2022-09-22T21:26:33.261Z,8.70
2022-09-22T21:29:00.446Z,8.70
2022-09-22T21:31:27.984Z,8.70
2022-09-22T21:33:54.978Z,8.60
2022-09-22T21:36:27.947Z,8.60
2022-09-22T21:38:56.777Z,8.50
2022-09-22T21:41:26.084Z,8.50
2022-09-22T21:43:53.319Z,8.50
2022-09-22T21:46:22.999Z,8.40
2022-09-22T21:48:50.058Z,8.40
2022-09-22T21:51:22.171Z,8.40
2022-09-22T21:53:52.804Z,8.40
2022-09-22T21:56:20.732Z,8.40
2022-09-22T21:58:52.450Z,8.30
2022-09-22T22:01:25.238Z,8.30
2022-09-22T22:03:53.540Z,8.30
2022-09-22T22:06:39.972Z,8.20
2022-09-22T22:09:11.292Z,8.20
2022-09-22T22:11:42.133Z,8.20
2022-09-22T22:14:10.813Z,8.10
2022-09-22T22:16:38.969Z,8.10
2022-09-22T22:19:07.547Z,8.10
2022-09-22T22:21:35.281Z,8.10
2022-09-22T22:24:18.993Z,8.00
2022-09-22T22:26:51.746Z,8.00
2022-09-22T22:29:19.540Z,8.00
2022-09-22T22:31:48.927Z,8.00
2022-09-22T22:34:17.730Z,7.90
2022-09-22T22:36:44.575Z,7.90
2022-09-22T22:39:11.614Z,7.90
2022-09-22T22:41:39.202Z,7.90
2022-09-22T22:44:07.086Z,7.80
2022-09-22T22:46:34.682Z,7.80
2022-09-22T22:49:01.471Z,7.80
2022-09-22T22:51:28.183Z,7.80
2022-09-22T22:53:57.762Z,7.80
2022-09-22T22:56:26.496Z,7.80
2022-09-22T22:58:53.976Z,7.70
2022-09-22T23:01:22.761Z,7.70
2022-09-22T23:04:03.568Z,7.70
2022-09-22T23:06:34.030Z,7.70
2022-09-22T23:09:00.757Z,7.70
2022-09-22T23:11:30.263Z,7.60
2022-09-22T23:14:05.407Z,7.60
2022-09-22T23:16:35.111Z,7.60
2022-09-22T23:19:03.839Z,7.60
2022-09-22T23:21:30.552Z,7.60
2022-09-22T23:23:57.418Z,7.60
2022-09-22T23:26:24.305Z,7.60
2022-09-22T23:28:52.536Z,7.60
2022-09-22T23:31:22.024Z,7.50
2022-09-22T23:33:50.001Z,7.50
2022-09-22T23:36:22.438Z,7.50
2022-09-22T23:38:56.399Z,7.50
2022-09-22T23:41:23.397Z,7.50
2022-09-22T23:43:50.559Z,7.50
2022-09-22T23:46:17.508Z,7.40
2022-09-22T23:48:44.329Z,7.40
2022-09-22T23:51:11.105Z,7.40
2022-09-22T23:53:37.913Z,7.40
2022-09-22T23:56:05.987Z,7.40
2022-09-22T23:58:32.848Z,7.40
